Time;durP1;ratioP1;P1;durP2;ratioP2;P2;SDS_P1;SDS_P2;PMS_P1;PMS_P2;Temp;Humidity;BMP_temperature;BMP_pressure;BME280_temperature;BME280_humidity;BME280_pressure;Samples;Min_cycle;Max_cycle;Signal;HPM_P1;HPM_P2
2023/03/17 00:00:20;;;;;;;1.97;0.70;;;4.40;99.90;;;;;;5052202;28;20481;-52
2023/03/17 00:02:49;;;;;;;1.33;0.87;;;4.20;99.90;;;;;;5052548;28;20533;-51
2023/03/17 00:05:23;;;;;;;2.13;0.80;;;4.00;99.90;;;;;;5052852;28;20483;-53
2023/03/17 00:07:52;;;;;;;1.47;1.00;;;4.00;99.90;;;;;;5052778;28;20469;-53
2023/03/17 00:10:22;;;;;;;1.17;0.80;;;4.20;99.90;;;;;;5051673;28;20539;-51
2023/03/17 00:12:52;;;;;;;4.03;1.40;;;4.20;99.90;;;;;;5051766;28;20448;-51
2023/03/17 00:15:20;;;;;;;1.93;1.33;;;4.00;99.90;;;;;;5051980;28;20442;-51
2023/03/17 00:17:48;;;;;;;2.10;1.50;;;4.00;99.90;;;;;;5052045;28;20503;-51
2023/03/17 00:20:23;;;;;;;3.53;1.23;;;4.10;99.90;;;;;;5052584;28;20450;-52
2023/03/17 00:22:50;;;;;;;2.17;1.30;;;4.10;99.90;;;;;;5051141;28;20492;-51
2023/03/17 00:25:22;;;;;;;3.73;0.97;;;3.90;99.90;;;;;;5051795;28;20884;-52
2023/03/17 00:27:49;;;;;;;1.63;0.90;;;4.10;99.90;;;;;;5051798;28;20448;-51
2023/03/17 00:30:16;;;;;;;1.50;0.70;;;4.10;99.90;;;;;;5051731;28;21026;-51
2023/03/17 00:32:45;;;;;;;1.10;0.77;;;4.20;99.90;;;;;;5051737;28;20863;-52
2023/03/17 00:35:22;;;;;;;1.97;1.00;;;4.20;99.90;;;;;;5051621;28;20445;-51
2023/03/17 00:37:52;;;;;;;1.20;1.03;;;4.10;99.90;;;;;;5052087;28;20940;-50
2023/03/17 00:40:22;;;;;;;3.97;0.87;;;4.10;99.90;;;;;;5051635;28;20960;-51
2023/03/17 00:42:50;;;;;;;1.13;0.70;;;3.90;99.90;;;;;;5051677;28;20537;-51
2023/03/17 00:45:17;;;;;;;1.00;0.90;;;4.00;99.90;;;;;;5051822;28;20568;-51
2023/03/17 00:47:45;;;;;;;1.30;0.90;;;4.00;99.90;;;;;;5051668;28;20480;-52
2023/03/17 00:50:17;;;;;;;2.10;0.80;;;3.80;99.90;;;;;;5051542;28;20456;-51
2023/03/17 00:52:45;;;;;;;1.23;0.77;;;3.70;99.90;;;;;;5051222;28;20533;-50
2023/03/17 00:55:13;;;;;;;1.13;0.93;;;3.50;99.90;;;;;;5051623;28;20520;-53
2023/03/17 00:57:41;;;;;;;1.10;0.60;;;3.60;99.90;;;;;;5051080;28;20518;-51
2023/03/17 01:00:19;;;;;;;1.17;0.80;;;3.80;99.90;;;;;;5051351;28;20486;-50
2023/03/17 01:02:46;;;;;;;1.30;0.80;;;3.90;99.90;;;;;;5050451;28;20468;-51
2023/03/17 01:05:14;;;;;;;1.10;0.80;;;3.80;99.90;;;;;;5051115;28;20473;-51
2023/03/17 01:07:46;;;;;;;1.00;0.63;;;3.80;99.90;;;;;;5050987;28;20480;-50
2023/03/17 01:10:17;;;;;;;0.90;0.60;;;3.80;99.90;;;;;;5050878;28;20498;-52
2023/03/17 01:12:45;;;;;;;1.53;0.90;;;3.50;99.90;;;;;;5049595;28;20499;-51
2023/03/17 01:15:13;;;;;;;1.60;0.90;;;3.50;99.90;;;;;;5041150;28;20465;-50
2023/03/17 01:17:40;;;;;;;1.03;0.73;;;3.40;99.90;;;;;;5031237;28;20959;-51
2023/03/17 01:20:14;;;;;;;1.60;0.60;;;3.50;99.90;;;;;;5032255;28;20527;-51
2023/03/17 01:22:41;;;;;;;1.50;1.00;;;3.70;99.90;;;;;;5050523;28;20947;-51
2023/03/17 01:25:10;;;;;;;1.27;0.93;;;3.90;99.90;;;;;;5050897;28;20489;-51
2023/03/17 01:27:39;;;;;;;1.30;0.90;;;3.80;99.90;;;;;;5051124;28;20444;-50
2023/03/17 01:30:09;;;;;;;1.40;0.93;;;3.70;99.90;;;;;;5050876;28;20512;-51
2023/03/17 01:32:36;;;;;;;3.77;1.30;;;3.70;99.90;;;;;;5050987;28;20453;-51
2023/03/17 01:35:03;;;;;;;1.50;1.30;;;3.70;99.90;;;;;;5050836;28;20889;-51
2023/03/17 01:37:30;;;;;;;1.10;0.77;;;3.80;99.90;;;;;;5050830;28;20491;-50
2023/03/17 01:39:58;;;;;;;2.17;1.10;;;3.90;99.90;;;;;;5050671;28;20458;-51
2023/03/17 01:42:25;;;;;;;1.00;0.80;;;3.70;99.90;;;;;;5050165;28;21011;-50
2023/03/17 01:45:06;;;;;;;1.37;0.83;;;3.70;99.90;;;;;;5050608;28;20514;-51
2023/03/17 01:47:34;;;;;;;1.30;0.70;;;3.90;99.90;;;;;;5050691;28;20480;-51
2023/03/17 01:50:06;;;;;;;1.07;0.80;;;3.80;99.90;;;;;;5050272;28;20520;-51
2023/03/17 01:52:36;;;;;;;1.90;0.70;;;3.60;99.90;;;;;;5051065;28;20533;-52
2023/03/17 01:55:06;;;;;;;0.90;0.70;;;3.40;99.90;;;;;;5050875;28;20472;-50
2023/03/17 01:57:35;;;;;;;1.50;0.70;;;3.10;99.90;;;;;;5050616;28;20440;-50
2023/03/17 02:00:08;;;;;;;1.33;1.03;;;3.10;99.90;;;;;;5050368;28;20941;-51
2023/03/17 02:02:37;;;;;;;1.63;1.30;;;3.00;99.90;;;;;;5050521;28;20511;-50
2023/03/17 02:05:06;;;;;;;1.30;1.20;;;2.70;99.90;;;;;;5050903;28;20563;-51
2023/03/17 02:07:33;;;;;;;1.47;1.37;;;2.40;99.90;;;;;;5050246;28;20444;-50
2023/03/17 02:10:02;;;;;;;1.87;1.20;;;2.10;99.90;;;;;;5049894;28;20446;-51
2023/03/17 02:12:30;;;;;;;3.23;2.20;;;2.20;99.90;;;;;;5049802;28;20467;-51
2023/03/17 02:14:58;;;;;;;2.70;2.10;;;2.10;99.90;;;;;;5052914;28;20517;-51
2023/03/17 02:17:28;;;;;;;2.20;1.80;;;2.10;99.90;;;;;;5054650;28;20530;-51
2023/03/17 02:19:55;;;;;;;1.90;1.60;;;2.20;99.90;;;;;;5053076;28;20950;-50
2023/03/17 02:22:24;;;;;;;1.97;1.77;;;2.30;99.90;;;;;;5042912;28;20494;-51
2023/03/17 02:24:53;;;;;;;3.60;1.47;;;2.40;99.90;;;;;;5053201;28;20516;-52
2023/03/17 02:27:23;;;;;;;1.30;1.07;;;2.60;99.90;;;;;;5053688;28;20455;-50
2023/03/17 02:29:50;;;;;;;3.23;1.97;;;2.80;99.90;;;;;;5053498;28;20529;-51
2023/03/17 02:32:19;;;;;;;2.87;1.90;;;3.00;99.90;;;;;;5053562;28;20498;-50
2023/03/17 02:34:46;;;;;;;2.33;1.90;;;3.00;99.90;;;;;;5053825;28;20439;-51
2023/03/17 02:37:13;;;;;;;1.70;1.00;;;3.10;99.90;;;;;;5053856;28;20535;-53
2023/03/17 02:39:42;;;;;;;1.30;0.93;;;3.10;99.90;;;;;;5053214;28;20501;-51
2023/03/17 02:42:09;;;;;;;1.33;0.93;;;3.20;99.90;;;;;;5053470;28;20474;-51
2023/03/17 02:44:37;;;;;;;2.20;1.10;;;3.40;99.90;;;;;;5053733;28;20549;-50
2023/03/17 02:47:05;;;;;;;1.87;1.10;;;3.00;99.90;;;;;;5053874;28;20443;-53
2023/03/17 02:49:32;;;;;;;1.60;1.20;;;3.00;99.90;;;;;;5053133;28;20449;-52
2023/03/17 02:52:00;;;;;;;1.20;0.80;;;3.20;99.90;;;;;;5053528;28;21010;-50
2023/03/17 02:54:27;;;;;;;1.50;0.93;;;3.10;99.90;;;;;;5053523;28;20505;-52
2023/03/17 02:56:55;;;;;;;3.43;1.10;;;3.10;99.90;;;;;;5053517;28;20483;-53
2023/03/17 02:59:22;;;;;;;2.23;1.27;;;3.10;99.90;;;;;;5052675;28;20885;-51
2023/03/17 03:01:49;;;;;;;1.00;0.90;;;3.10;99.90;;;;;;5053200;28;20504;-51
2023/03/17 03:04:17;;;;;;;1.37;0.80;;;3.20;99.90;;;;;;5033481;28;20446;-53
2023/03/17 03:06:45;;;;;;;1.73;0.60;;;3.20;99.90;;;;;;5038798;28;20453;-51
2023/03/17 03:09:12;;;;;;;1.53;1.00;;;3.10;99.90;;;;;;5053353;28;20919;-50
2023/03/17 03:11:39;;;;;;;1.47;0.70;;;3.00;99.90;;;;;;5052606;28;20882;-51
2023/03/17 03:14:08;;;;;;;1.07;0.97;;;3.10;99.90;;;;;;5052901;28;20479;-51
2023/03/17 03:16:35;;;;;;;1.70;1.00;;;2.70;99.90;;;;;;5053088;28;21009;-52
2023/03/17 03:19:02;;;;;;;1.10;0.80;;;2.80;99.90;;;;;;5052774;28;20946;-51
2023/03/17 03:21:29;;;;;;;1.03;0.90;;;2.80;99.90;;;;;;5052933;28;20531;-52
2023/03/17 03:23:56;;;;;;;3.73;1.43;;;2.80;99.90;;;;;;5033113;28;20448;-51
2023/03/17 03:26:23;;;;;;;3.87;1.60;;;2.90;99.90;;;;;;5049237;28;20918;-51
2023/03/17 03:28:50;;;;;;;3.00;2.20;;;3.00;99.90;;;;;;5053103;28;20541;-51
2023/03/17 03:31:19;;;;;;;2.93;1.30;;;3.10;99.90;;;;;;5052820;28;20479;-52
2023/03/17 03:33:46;;;;;;;3.00;1.23;;;2.90;99.90;;;;;;5052786;28;20481;-50
2023/03/17 03:36:14;;;;;;;1.67;1.13;;;2.90;99.90;;;;;;5052769;28;20517;-52
2023/03/17 03:38:41;;;;;;;1.40;1.20;;;3.00;99.90;;;;;;5052788;28;20540;-50
2023/03/17 03:41:08;;;;;;;1.10;0.97;;;3.00;99.90;;;;;;5052214;28;20835;-51
2023/03/17 03:43:36;;;;;;;1.10;0.97;;;3.20;99.90;;;;;;5052664;28;20534;-51
2023/03/17 03:46:04;;;;;;;2.57;1.40;;;3.40;99.90;;;;;;5053059;28;20557;-51
2023/03/17 03:48:32;;;;;;;1.10;0.90;;;3.50;99.90;;;;;;5052992;28;20881;-51
2023/03/17 03:51:01;;;;;;;1.13;0.60;;;3.50;99.90;;;;;;5052560;28;20550;-51
2023/03/17 03:53:29;;;;;;;1.00;0.80;;;3.40;99.90;;;;;;5052443;28;20954;-50
2023/03/17 03:55:55;;;;;;;1.37;0.80;;;3.20;99.90;;;;;;5052170;28;20513;-51
2023/03/17 03:58:23;;;;;;;1.57;0.70;;;3.20;99.90;;;;;;5052909;28;20864;-52
2023/03/17 04:00:50;;;;;;;1.33;0.87;;;3.20;99.90;;;;;;5051814;28;20556;-50
2023/03/17 04:03:17;;;;;;;1.50;0.80;;;3.00;99.90;;;;;;5052695;28;20487;-51
2023/03/17 04:05:45;;;;;;;1.93;0.90;;;3.10;99.90;;;;;;5052539;28;20989;-51
2023/03/17 04:08:12;;;;;;;7.50;0.77;;;3.10;99.90;;;;;;5052200;28;20519;-51
2023/03/17 04:10:39;;;;;;;4.10;1.60;;;3.10;99.90;;;;;;5051588;28;20497;-50
2023/03/17 04:13:07;;;;;;;5.40;2.03;;;3.10;99.90;;;;;;5051943;28;20447;-52
2023/03/17 04:15:34;;;;;;;3.83;1.20;;;3.00;99.90;;;;;;5051772;28;20543;-52
2023/03/17 04:18:01;;;;;;;1.20;0.90;;;2.50;99.90;;;;;;5052214;28;20484;-51
2023/03/17 04:20:28;;;;;;;1.20;0.97;;;2.60;99.90;;;;;;5051843;28;20550;-54
2023/03/17 04:22:56;;;;;;;1.57;1.00;;;2.40;99.90;;;;;;5052216;28;20534;-51
2023/03/17 04:25:23;;;;;;;1.40;0.90;;;2.30;99.90;;;;;;5052108;28;20575;-50
2023/03/17 04:27:50;;;;;;;1.70;1.30;;;2.60;99.90;;;;;;5051956;28;20531;-51
2023/03/17 04:30:17;;;;;;;15.07;7.90;;;2.70;99.90;;;;;;5051314;28;20490;-50
2023/03/17 04:32:45;;;;;;;12.57;6.60;;;2.80;99.90;;;;;;5049870;28;20532;-52
2023/03/17 04:35:14;;;;;;;2.17;1.73;;;2.80;99.90;;;;;;5049911;28;20432;-49
2023/03/17 04:37:41;;;;;;;2.87;1.40;;;2.70;99.90;;;;;;5049429;28;21007;-49
2023/03/17 04:40:12;;;;;;;2.23;1.33;;;2.90;99.90;;;;;;5050131;28;20541;-50
2023/03/17 04:42:39;;;;;;;2.50;1.17;;;3.00;99.90;;;;;;5049915;28;20540;-49
2023/03/17 04:45:08;;;;;;;2.07;1.07;;;2.90;99.90;;;;;;5049751;28;20503;-51
2023/03/17 04:47:35;;;;;;;1.53;1.30;;;2.70;99.90;;;;;;5050795;28;20964;-50
2023/03/17 04:50:02;;;;;;;2.70;2.13;;;2.60;99.90;;;;;;5051786;28;20453;-49
2023/03/17 04:52:29;;;;;;;1.10;0.80;;;2.80;99.90;;;;;;5051285;28;21032;-49
2023/03/17 04:54:57;;;;;;;1.27;0.77;;;2.70;99.90;;;;;;5051741;28;20502;-49
2023/03/17 04:57:25;;;;;;;2.50;1.47;;;2.60;99.90;;;;;;5051376;28;20480;-51
2023/03/17 04:59:52;;;;;;;3.97;1.20;;;2.70;99.90;;;;;;5030981;28;20482;-51
2023/03/17 05:02:19;;;;;;;4.60;1.20;;;2.70;99.90;;;;;;5049583;28;20564;-49
2023/03/17 05:04:46;;;;;;;2.13;1.10;;;2.80;99.90;;;;;;5051104;28;20487;-49
2023/03/17 05:07:13;;;;;;;6.13;1.33;;;2.80;99.90;;;;;;5046908;28;20929;-49
2023/03/17 05:09:40;;;;;;;1.63;1.20;;;2.90;99.90;;;;;;5030992;28;20471;-51
2023/03/17 05:12:09;;;;;;;3.23;2.13;;;2.90;99.90;;;;;;5031201;28;20530;-50
2023/03/17 05:14:37;;;;;;;4.40;3.40;;;3.00;99.90;;;;;;5031471;28;20479;-49
2023/03/17 05:17:04;;;;;;;2.40;2.13;;;3.20;99.90;;;;;;5031255;28;20485;-49
2023/03/17 05:19:31;;;;;;;2.20;1.90;;;3.10;99.90;;;;;;5031108;28;20532;-50
2023/03/17 05:21:59;;;;;;;1.40;0.97;;;3.20;99.90;;;;;;5042094;28;20475;-49
2023/03/17 05:24:26;;;;;;;1.90;1.33;;;3.10;99.90;;;;;;5042960;28;20469;-51
2023/03/17 05:26:53;;;;;;;1.97;1.30;;;3.10;99.90;;;;;;5044509;28;21035;-50
2023/03/17 05:29:20;;;;;;;2.03;1.50;;;3.10;99.90;;;;;;5047655;28;20485;-50
2023/03/17 05:31:48;;;;;;;3.33;2.07;;;3.20;99.90;;;;;;5040403;28;20509;-49
2023/03/17 05:34:16;;;;;;;3.37;3.07;;;3.20;99.90;;;;;;5039159;28;20532;-50
2023/03/17 05:36:43;;;;;;;1.83;1.53;;;2.80;99.90;;;;;;5050196;28;20438;-49
2023/03/17 05:39:10;;;;;;;4.13;3.13;;;2.90;99.90;;;;;;5048936;28;20438;-49
2023/03/17 05:41:37;;;;;;;2.07;1.87;;;3.00;99.90;;;;;;5047401;28;20559;-50
2023/03/17 05:44:04;;;;;;;1.90;1.80;;;3.00;99.90;;;;;;5048209;28;20447;-50
2023/03/17 05:46:31;;;;;;;2.20;1.80;;;3.10;99.90;;;;;;5047846;28;20930;-51
2023/03/17 05:48:59;;;;;;;2.87;2.60;;;3.20;99.90;;;;;;5052348;28;20477;-51
2023/03/17 05:51:27;;;;;;;3.43;3.10;;;3.20;99.90;;;;;;5052245;28;21146;-50
2023/03/17 05:53:54;;;;;;;4.07;2.57;;;3.10;99.90;;;;;;5050329;28;20437;-49
2023/03/17 05:56:21;;;;;;;14.80;12.40;;;2.70;99.90;;;;;;5052302;28;20883;-49
2023/03/17 05:58:48;;;;;;;7.07;6.03;;;2.80;99.90;;;;;;5052751;28;20479;-48
2023/03/17 06:01:15;;;;;;;5.00;3.77;;;3.00;99.90;;;;;;5049917;28;21009;-51
2023/03/17 06:03:41;;;;;;;5.33;3.20;;;2.60;99.90;;;;;;5051579;28;20513;-48
2023/03/17 06:06:10;;;;;;;4.70;3.20;;;2.30;99.90;;;;;;5060306;28;20508;-49
2023/03/17 06:08:37;;;;;;;3.80;3.50;;;2.40;99.90;;;;;;5051437;28;20835;-49
2023/03/17 06:11:03;;;;;;;3.33;2.17;;;2.40;99.90;;;;;;5051245;28;20525;-49
2023/03/17 06:13:30;;;;;;;2.47;2.27;;;2.50;99.90;;;;;;5052573;28;20526;-49
2023/03/17 06:15:57;;;;;;;6.40;4.67;;;2.40;99.90;;;;;;5046975;28;20881;-50
2023/03/17 06:18:24;;;;;;;4.33;3.93;;;2.50;99.90;;;;;;5052626;28;21017;-49
2023/03/17 06:20:51;;;;;;;4.10;3.30;;;2.80;99.90;;;;;;5027068;28;1154984;-52
2023/03/17 06:23:22;;;;;;;3.80;3.50;;;2.90;99.90;;;;;;5054130;28;20297;-50
2023/03/17 06:25:49;;;;;;;4.27;3.87;;;2.90;99.90;;;;;;5048547;28;20486;-49
2023/03/17 06:28:16;;;;;;;5.47;3.53;;;2.60;99.90;;;;;;5053197;28;20534;-52
2023/03/17 06:30:43;;;;;;;6.20;3.70;;;2.60;99.90;;;;;;5053362;28;20490;-51
2023/03/17 06:33:10;;;;;;;3.33;3.03;;;2.50;99.90;;;;;;5053457;28;20520;-49
2023/03/17 06:35:37;;;;;;;4.67;4.23;;;2.80;99.90;;;;;;5040721;28;20862;-50
2023/03/17 06:38:04;;;;;;;14.93;9.97;;;3.10;99.90;;;;;;5032701;28;20533;-51
2023/03/17 06:40:33;;;;;;;10.27;5.70;;;3.20;99.90;;;;;;5033741;28;20476;-49
2023/03/17 06:43:00;;;;;;;5.63;4.07;;;3.30;99.90;;;;;;5033826;28;20441;-49
2023/03/17 06:45:27;;;;;;;5.37;3.90;;;3.40;99.90;;;;;;5044427;28;20441;-49
2023/03/17 06:47:55;;;;;;;2.70;2.30;;;3.40;99.90;;;;;;5053732;28;20867;-49
2023/03/17 06:50:22;;;;;;;3.20;2.90;;;3.20;99.90;;;;;;5053070;28;20452;-49
2023/03/17 06:52:49;;;;;;;8.63;3.53;;;3.30;99.90;;;;;;5032844;28;20557;-50
2023/03/17 06:55:16;;;;;;;5.30;3.33;;;3.40;99.90;;;;;;5033131;28;20478;-52
2023/03/17 06:57:45;;;;;;;3.30;3.00;;;3.30;99.90;;;;;;5033936;28;20456;-53
2023/03/17 07:00:14;;;;;;;5.23;3.70;;;3.20;99.90;;;;;;5032037;28;20456;-52
2023/03/17 07:02:41;;;;;;;4.50;4.10;;;3.20;99.90;;;;;;5032390;28;20458;-50
2023/03/17 07:05:09;;;;;;;3.90;3.00;;;3.40;99.90;;;;;;5033203;28;20446;-50
2023/03/17 07:07:36;;;;;;;3.40;3.10;;;3.60;99.90;;;;;;5033249;28;20567;-52
2023/03/17 07:10:03;;;;;;;3.60;3.30;;;3.60;99.90;;;;;;5031967;28;20533;-50
2023/03/17 07:12:30;;;;;;;7.53;5.63;;;3.70;99.90;;;;;;5031935;28;20467;-49
2023/03/17 07:14:58;;;;;;;5.43;4.90;;;3.90;99.90;;;;;;5032250;28;20472;-49
2023/03/17 07:17:25;;;;;;;4.63;3.47;;;4.10;99.90;;;;;;5033123;28;20441;-49
2023/03/17 07:19:52;;;;;;;5.30;4.20;;;4.20;99.90;;;;;;5033342;28;20531;-52
2023/03/17 07:22:19;;;;;;;9.27;5.40;;;4.30;99.90;;;;;;5030325;28;20577;-50
2023/03/17 07:24:47;;;;;;;9.20;7.43;;;4.40;99.90;;;;;;5032846;28;21028;-51
2023/03/17 07:27:15;;;;;;;9.73;5.73;;;4.40;99.90;;;;;;5031827;28;21018;-49
2023/03/17 07:29:42;;;;;;;9.17;5.43;;;4.50;99.90;;;;;;5033002;28;20542;-50
2023/03/17 07:32:10;;;;;;;7.17;6.47;;;4.70;99.90;;;;;;5032039;28;20514;-54
2023/03/17 07:34:37;;;;;;;10.37;5.77;;;4.70;99.90;;;;;;5032690;28;20473;-50
2023/03/17 07:37:05;;;;;;;9.53;4.50;;;4.50;99.90;;;;;;5032349;28;20449;-49
2023/03/17 07:39:32;;;;;;;4.37;3.20;;;4.60;99.90;;;;;;5032522;28;20449;-49
2023/03/17 07:41:59;;;;;;;4.10;2.50;;;4.70;99.90;;;;;;5032412;28;20548;-50
2023/03/17 07:44:26;;;;;;;5.03;2.80;;;4.70;99.90;;;;;;5032726;28;20471;-50
2023/03/17 07:46:53;;;;;;;4.40;4.00;;;4.70;99.90;;;;;;5032525;28;20483;-49
2023/03/17 07:49:22;;;;;;;8.33;5.70;;;4.70;99.90;;;;;;5032462;28;20473;-50
2023/03/17 07:51:49;;;;;;;7.93;5.63;;;4.80;99.90;;;;;;5032584;28;20561;-49
2023/03/17 07:54:15;;;;;;;9.83;6.67;;;4.80;99.90;;;;;;5032293;28;20500;-49
2023/03/17 07:56:42;;;;;;;5.50;5.00;;;4.80;99.90;;;;;;5032547;28;20809;-50
2023/03/17 07:59:10;;;;;;;3.87;3.30;;;4.70;99.90;;;;;;5032346;28;21039;-49
2023/03/17 08:01:37;;;;;;;2.77;2.17;;;4.60;99.90;;;;;;5032191;28;20562;-49
2023/03/17 08:04:04;;;;;;;2.20;2.00;;;4.60;99.90;;;;;;5032094;28;20937;-49
2023/03/17 08:06:33;;;;;;;3.23;2.50;;;4.70;99.90;;;;;;5031650;28;20524;-50
2023/03/17 08:08:59;;;;;;;5.40;3.33;;;4.80;99.90;;;;;;5031845;28;20530;-50
2023/03/17 08:11:26;;;;;;;3.10;2.90;;;4.90;99.90;;;;;;5031465;28;20508;-50
2023/03/17 08:13:53;;;;;;;3.40;2.40;;;5.10;99.90;;;;;;5032069;28;20450;-50
2023/03/17 08:16:20;;;;;;;4.10;3.67;;;5.20;99.90;;;;;;5032070;28;20886;-50
2023/03/17 08:18:47;;;;;;;17.03;7.93;;;5.40;99.90;;;;;;5031820;28;20949;-50
2023/03/17 08:21:15;;;;;;;10.63;7.93;;;5.50;99.90;;;;;;5031052;28;20480;-50
2023/03/17 08:23:43;;;;;;;12.97;8.20;;;5.40;99.90;;;;;;5032190;28;20545;-50
2023/03/17 08:26:12;;;;;;;6.30;5.70;;;5.50;99.90;;;;;;5031577;28;20514;-52
2023/03/17 08:28:40;;;;;;;11.33;5.90;;;5.50;99.90;;;;;;5031732;28;20465;-53
2023/03/17 08:31:09;;;;;;;8.43;6.00;;;5.50;99.90;;;;;;5031276;28;20463;-53
2023/03/17 08:33:36;;;;;;;5.13;4.17;;;5.50;99.90;;;;;;5031921;28;20457;-53
2023/03/17 08:36:08;;;;;;;6.40;3.10;;;5.60;99.90;;;;;;5031789;28;20500;-52
2023/03/17 08:38:35;;;;;;;2.60;2.23;;;5.70;99.90;;;;;;5031566;28;20504;-52
2023/03/17 08:41:05;;;;;;;2.57;1.40;;;5.90;99.90;;;;;;5031748;28;20490;-54
2023/03/17 08:43:32;;;;;;;4.63;1.70;;;6.00;99.90;;;;;;5031706;28;20456;-52
2023/03/17 08:46:02;;;;;;;8.13;3.23;;;6.20;99.90;;;;;;5031243;28;20204;-53
2023/03/17 08:48:29;;;;;;;51.90;9.47;;;6.20;99.90;;;;;;5031565;28;20470;-53
2023/03/17 08:50:57;;;;;;;90.03;14.33;;;6.30;99.90;;;;;;5031352;28;20553;-53
2023/03/17 08:53:24;;;;;;;35.37;6.60;;;6.30;99.90;;;;;;5031193;28;20446;-53
2023/03/17 08:55:52;;;;;;;7.60;2.40;;;6.40;99.90;;;;;;5045652;28;20453;-52
2023/03/17 08:58:20;;;;;;;4.70;4.30;;;6.40;99.90;;;;;;5050976;28;20481;-52
2023/03/17 09:00:47;;;;;;;5.37;3.17;;;6.50;99.90;;;;;;5051069;28;20465;-53
2023/03/17 09:03:15;;;;;;;11.00;3.60;;;6.60;99.90;;;;;;5051103;28;20846;-52
2023/03/17 09:05:42;;;;;;;5.70;2.70;;;6.60;99.90;;;;;;5051366;28;20539;-54
2023/03/17 09:08:10;;;;;;;22.33;5.47;;;6.60;99.90;;;;;;5051115;28;20817;-52
2023/03/17 09:10:37;;;;;;;12.88;4.13;;;6.70;99.90;;;;;;5050435;28;20470;-52
2023/03/17 09:13:05;;;;;;;7.63;3.57;;;6.80;99.90;;;;;;5050506;28;20293;-53
2023/03/17 09:15:33;;;;;;;7.73;3.80;;;6.90;99.90;;;;;;5051069;28;20473;-52
2023/03/17 09:18:00;;;;;;;5.87;3.90;;;7.00;99.90;;;;;;5050737;28;20997;-53
2023/03/17 09:20:27;;;;;;;9.10;3.67;;;7.00;99.90;;;;;;5050971;28;20466;-52
2023/03/17 09:22:55;;;;;;;5.43;3.30;;;7.10;99.90;;;;;;5057848;22;20529;-82
2023/03/17 09:25:22;;;;;;;16.23;3.50;;;7.20;99.90;;;;;;5052015;28;20497;-83
2023/03/17 09:27:50;;;;;;;3.50;2.47;;;7.30;99.90;;;;;;5051309;28;20833;-82
2023/03/17 09:30:17;;;;;;;3.10;2.10;;;7.40;99.90;;;;;;5053110;28;20536;-80
2023/03/17 09:32:46;;;;;;;3.53;1.83;;;7.50;99.90;;;;;;5053113;28;20474;-80
2023/03/17 09:37:51;;;;;;;1.97;1.70;;;7.70;99.90;;;;;;5029084;28;20869;-54
2023/03/17 09:40:21;;;;;;;3.33;1.80;;;7.70;99.90;;;;;;5030769;28;20448;-53
2023/03/17 09:42:57;;;;;;;2.33;1.77;;;7.80;99.90;;;;;;5030664;28;20545;-54
2023/03/17 09:45:31;;;;;;;2.83;2.23;;;7.70;99.90;;;;;;5030601;28;20775;-54
2023/03/17 09:50:32;;;;;;;3.10;2.27;;;8.00;99.90;;;;;;5050132;28;20470;-50
2023/03/17 09:53:00;;;;;;;12.47;7.30;;;8.30;99.90;;;;;;5052053;28;21015;-50
2023/03/17 09:55:29;;;;;;;3.97;2.10;;;8.30;99.90;;;;;;5051938;28;20530;-51
2023/03/17 09:57:59;;;;;;;1.50;1.30;;;8.30;99.90;;;;;;5051664;28;20785;-51
2023/03/17 10:00:29;;;;;;;2.60;1.20;;;8.30;99.90;;;;;;5052495;28;20449;-52
2023/03/17 10:02:57;;;;;;;1.87;1.10;;;8.50;99.90;;;;;;5052049;28;20511;-51
2023/03/17 10:05:28;;;;;;;1.03;0.83;;;8.70;99.90;;;;;;5051313;28;20947;-48
2023/03/17 10:08:03;;;;;;;2.10;1.40;;;8.70;99.90;;;;;;5050122;28;21010;-50
2023/03/17 10:10:37;;;;;;;1.30;0.97;;;8.90;99.90;;;;;;5050371;28;20960;-50
2023/03/17 10:13:14;;;;;;;2.10;1.57;;;9.10;99.90;;;;;;5050634;28;20477;-51
2023/03/17 10:15:49;;;;;;;2.27;1.60;;;9.20;99.90;;;;;;5050644;28;20525;-51
2023/03/17 10:18:18;;;;;;;1.53;0.90;;;9.70;99.90;;;;;;5050537;28;20488;-50
2023/03/17 10:20:52;;;;;;;1.20;0.80;;;10.40;99.90;;;;;;5050438;28;20532;-52
2023/03/17 10:23:21;;;;;;;1.10;0.60;;;10.70;99.90;;;;;;5049429;28;20460;-52
2023/03/17 10:25:48;;;;;;;3.83;1.47;;;10.50;99.90;;;;;;5050115;28;20508;-51
2023/03/17 10:28:26;;;;;;;2.60;1.23;;;10.90;99.90;;;;;;5049646;28;20971;-51
2023/03/17 10:30:54;;;;;;;1.30;1.00;;;11.10;99.90;;;;;;5050135;28;20451;-48
2023/03/17 10:33:21;;;;;;;1.10;0.90;;;10.90;99.90;;;;;;5049073;28;20485;-51
2023/03/17 10:35:49;;;;;;;1.60;1.00;;;10.60;99.90;;;;;;5053158;28;20792;-50
2023/03/17 10:38:18;;;;;;;2.30;1.77;;;10.40;99.90;;;;;;5054158;28;20551;-52
2023/03/17 10:40:47;;;;;;;4.27;2.00;;;11.30;99.90;;;;;;5053668;28;20476;-52
2023/03/17 10:43:19;;;;;;;5.00;1.37;;;11.50;99.90;;;;;;5052573;28;20453;-52
2023/03/17 10:45:58;;;;;;;1.83;1.30;;;11.60;99.90;;;;;;5053432;28;20545;-52
2023/03/17 10:48:25;;;;;;;2.73;1.60;;;12.10;99.90;;;;;;5053528;28;20516;-51
2023/03/17 10:50:57;;;;;;;3.47;2.10;;;11.60;99.90;;;;;;5053809;28;20511;-51
2023/03/17 10:53:27;;;;;;;1.77;1.20;;;11.50;99.90;;;;;;5053152;28;20451;-51
2023/03/17 10:55:57;;;;;;;2.67;1.30;;;11.80;99.90;;;;;;5053422;28;20454;-51
2023/03/17 10:58:37;;;;;;;1.43;0.90;;;12.00;99.90;;;;;;5053662;28;20611;-52
2023/03/17 11:01:07;;;;;;;3.43;1.80;;;12.00;99.90;;;;;;5053514;28;20537;-50
2023/03/17 11:03:38;;;;;;;1.60;0.90;;;11.90;99.90;;;;;;5053391;28;20447;-51
2023/03/17 11:06:09;;;;;;;2.63;0.80;;;11.60;99.90;;;;;;5053709;28;20452;-51
2023/03/17 11:08:40;;;;;;;3.30;1.53;;;11.40;99.90;;;;;;5052876;28;20485;-49
2023/03/17 11:11:10;;;;;;;2.87;1.13;;;11.00;99.90;;;;;;5053320;28;20447;-51
2023/03/17 11:13:37;;;;;;;1.83;1.30;;;10.90;99.90;;;;;;5053292;28;20499;-51
2023/03/17 11:16:21;;;;;;;1.60;1.10;;;11.10;99.90;;;;;;5053385;28;20473;-50
2023/03/17 11:18:50;;;;;;;1.63;1.20;;;11.20;99.90;;;;;;5052978;28;20457;-52
2023/03/17 11:21:26;;;;;;;1.67;1.30;;;11.30;99.90;;;;;;5052778;28;20521;-51
2023/03/17 11:23:58;;;;;;;1.50;1.20;;;11.40;99.90;;;;;;5053009;28;20535;-51
2023/03/17 11:26:51;;;;;;;1.60;1.30;;;11.60;99.90;;;;;;5052477;28;20474;-51
2023/03/17 11:29:31;;;;;;;1.27;1.03;;;11.40;99.90;;;;;;5048895;28;20862;-49
2023/03/17 11:32:12;;;;;;;1.70;0.93;;;11.50;99.90;;;;;;5052143;28;20442;-51
2023/03/17 11:34:52;;;;;;;1.63;1.00;;;11.70;99.90;;;;;;5052966;28;20528;-53
2023/03/17 11:37:33;;;;;;;1.83;1.00;;;11.80;99.90;;;;;;5053124;28;20443;-51
2023/03/17 11:40:07;;;;;;;1.73;1.10;;;11.80;99.90;;;;;;5052435;28;20495;-52
2023/03/17 11:42:45;;;;;;;1.23;0.90;;;11.90;99.90;;;;;;5052610;28;20446;-51
2023/03/17 11:45:26;;;;;;;1.50;1.10;;;11.70;99.90;;;;;;5052647;28;20459;-51
2023/03/17 11:48:06;;;;;;;4.83;1.83;;;11.40;99.90;;;;;;5051607;28;21106;-51
2023/03/17 11:50:40;;;;;;;1.33;0.90;;;11.60;99.90;;;;;;5051937;28;20490;-51
2023/03/17 11:53:23;;;;;;;2.47;1.20;;;11.60;99.90;;;;;;5051718;28;20524;-52
2023/03/17 11:55:56;;;;;;;1.87;1.03;;;11.40;99.90;;;;;;5052018;28;20463;-51
2023/03/17 11:58:29;;;;;;;3.67;1.57;;;11.60;99.90;;;;;;5052212;28;20849;-51
2023/03/17 12:00:59;;;;;;;5.47;1.47;;;12.00;99.90;;;;;;5052325;28;20720;-51
2023/03/17 12:03:33;;;;;;;3.10;1.63;;;12.30;99.90;;;;;;5052023;28;20488;-51
2023/03/17 12:06:05;;;;;;;1.97;1.20;;;12.40;99.90;;;;;;5052177;28;20476;-51
2023/03/17 12:08:39;;;;;;;4.33;1.37;;;12.50;99.90;;;;;;5051741;28;20481;-52
2023/03/17 12:11:10;;;;;;;2.80;1.20;;;12.50;99.90;;;;;;5051987;28;20472;-52
2023/03/17 12:13:41;;;;;;;1.40;1.00;;;12.40;99.90;;;;;;5051627;28;20481;-51
2023/03/17 12:16:13;;;;;;;3.87;0.80;;;12.40;99.90;;;;;;5052082;28;20449;-51
2023/03/17 12:18:45;;;;;;;7.73;1.03;;;12.80;99.90;;;;;;5051784;28;20493;-51
2023/03/17 12:21:20;;;;;;;8.97;1.63;;;12.80;99.90;;;;;;5051571;28;20448;-51
2023/03/17 12:23:49;;;;;;;1.70;1.30;;;12.50;99.90;;;;;;5052015;28;20540;-51
2023/03/17 12:26:19;;;;;;;1.93;1.20;;;13.00;99.90;;;;;;5051170;28;20526;-51
2023/03/17 12:28:51;;;;;;;2.07;1.10;;;12.90;99.90;;;;;;5051781;28;20906;-51
2023/03/17 12:31:21;;;;;;;1.87;1.30;;;13.10;99.90;;;;;;5051022;28;20476;-51
2023/03/17 12:33:53;;;;;;;1.40;1.07;;;13.30;99.90;;;;;;5052042;28;20628;-51
2023/03/17 12:36:21;;;;;;;1.40;1.07;;;13.20;99.90;;;;;;5051900;28;20480;-50
2023/03/17 12:38:55;;;;;;;1.30;1.00;;;13.40;99.90;;;;;;5051751;28;20453;-52
2023/03/17 12:41:42;;;;;;;1.70;1.57;;;13.40;99.90;;;;;;5050873;28;20443;-53
2023/03/17 12:44:26;;;;;;;2.10;1.37;;;13.40;99.90;;;;;;5051188;28;20939;-51
2023/03/17 12:47:16;;;;;;;1.40;1.30;;;13.30;99.90;;;;;;5051572;28;20481;-52
2023/03/17 12:50:04;;;;;;;1.73;1.20;;;13.30;99.90;;;;;;5051219;28;20476;-52
2023/03/17 12:52:54;;;;;;;1.67;1.27;;;13.30;99.90;;;;;;5051304;28;20455;-52
2023/03/17 12:55:26;;;;;;;3.77;1.50;;;13.40;99.90;;;;;;5051688;28;20459;-51
2023/03/17 12:58:00;;;;;;;8.30;5.67;;;13.50;99.90;;;;;;5050948;28;20821;-50
2023/03/17 13:00:31;;;;;;;3.90;1.60;;;13.70;99.90;;;;;;5051501;28;20452;-53
2023/03/17 13:03:17;;;;;;;1.60;1.10;;;13.70;99.90;;;;;;5051302;28;20465;-52
2023/03/17 13:05:46;;;;;;;1.80;1.40;;;13.60;99.90;;;;;;5051256;28;20473;-52
2023/03/17 13:08:20;;;;;;;2.10;1.50;;;13.70;99.90;;;;;;5050041;28;20700;-51
2023/03/17 13:10:50;;;;;;;2.37;1.50;;;13.80;99.90;;;;;;5051113;28;20449;-51